Time;durP1;ratioP1;P1;durP2;ratioP2;P2;SDS_P1;SDS_P2;PMS_P1;PMS_P2;Temp;Humidity;BMP_temperature;BMP_pressure;BME280_temperature;BME280_humidity;BME280_pressure;Samples;Min_cycle;Max_cycle;Signal;HPM_P1;HPM_P2
2021/12/01 00:01:55;;;;;;;3.67;3.38;;;15.30;82.20;;;;;;4192179;28;20048;-69
2021/12/01 00:04:16;;;;;;;3.65;3.35;;;15.30;82.50;;;;;;4193130;28;20063;-69
2021/12/01 00:06:39;;;;;;;4.30;3.95;;;15.20;82.60;;;;;;4186878;28;20049;-68
2021/12/01 00:09:03;;;;;;;3.45;3.25;;;15.20;83.70;;;;;;4193225;28;20056;-69
2021/12/01 00:11:25;;;;;;;3.80;3.50;;;15.30;83.00;;;;;;4193768;28;21442;-69
2021/12/01 00:13:47;;;;;;;5.28;4.00;;;15.20;83.10;;;;;;4192534;28;20036;-69
2021/12/01 00:16:10;;;;;;;3.60;3.40;;;15.20;83.00;;;;;;4178417;28;20411;-69
2021/12/01 00:18:31;;;;;;;4.50;4.10;;;15.20;83.20;;;;;;4176560;28;20045;-69
2021/12/01 00:20:54;;;;;;;5.00;4.55;;;15.20;83.50;;;;;;4162069;28;20060;-69
2021/12/01 00:23:16;;;;;;;4.50;4.20;;;15.20;83.40;;;;;;4176829;28;20048;-69
2021/12/01 00:25:42;;;;;;;4.93;4.45;;;15.10;83.50;;;;;;4177477;28;20057;-69
2021/12/01 00:28:04;;;;;;;4.68;4.28;;;15.10;83.70;;;;;;4176727;28;20045;-69
2021/12/01 00:30:26;;;;;;;4.68;4.30;;;15.10;83.90;;;;;;4176871;28;20049;-69
2021/12/01 00:32:49;;;;;;;5.30;4.80;;;15.10;83.90;;;;;;4177071;28;20570;-69
2021/12/01 00:35:11;;;;;;;3.97;3.67;;;15.10;83.90;;;;;;4183189;28;20143;-68
2021/12/01 00:37:34;;;;;;;5.07;4.68;;;15.10;84.00;;;;;;4193455;28;20094;-69
2021/12/01 00:39:56;;;;;;;3.83;3.53;;;15.10;84.20;;;;;;4193542;28;20041;-76
2021/12/01 00:42:19;;;;;;;4.78;4.38;;;15.10;84.30;;;;;;4177950;28;20492;-75
2021/12/01 00:44:46;;;;;;;4.43;4.03;;;15.10;84.40;;;;;;4190624;28;20127;-75
2021/12/01 00:47:11;;;;;;;4.85;4.45;;;15.20;84.70;;;;;;4176925;28;20049;-75
2021/12/01 00:49:35;;;;;;;6.28;5.68;;;15.20;84.80;;;;;;4162658;28;20128;-76
2021/12/01 00:51:57;;;;;;;10.90;5.80;;;15.20;84.60;;;;;;4161388;28;20489;-75
2021/12/01 00:54:19;;;;;;;7.20;6.38;;;15.30;84.40;;;;;;4176698;28;20094;-76
2021/12/01 00:56:41;;;;;;;8.38;6.70;;;15.40;84.10;;;;;;4161620;28;20045;-75
2021/12/01 00:59:04;;;;;;;9.32;7.75;;;15.40;84.10;;;;;;4176226;28;20059;-73
2021/12/01 01:01:26;;;;;;;7.18;6.35;;;15.50;83.90;;;;;;4176764;28;20052;-72
2021/12/01 01:03:49;;;;;;;9.27;7.60;;;15.60;83.60;;;;;;4176721;28;20041;-75
2021/12/01 01:06:10;;;;;;;10.00;7.70;;;15.60;83.30;;;;;;4177489;28;20443;-75
2021/12/01 01:08:33;;;;;;;10.77;7.38;;;15.70;83.10;;;;;;4176415;28;20037;-75
2021/12/01 01:11:10;;;;;;;11.90;7.63;;;15.70;82.90;;;;;;4176654;28;20045;-75
2021/12/01 01:16:25;;;;;;;13.30;7.35;;;15.70;82.60;;;;;;4191806;28;20048;-77
2021/12/01 01:18:49;;;;;;;10.65;7.10;;;15.70;82.70;;;;;;4192087;28;20045;-76
2021/12/01 01:21:12;;;;;;;10.43;6.93;;;15.70;82.70;;;;;;4192708;28;20079;-77
2021/12/01 01:23:36;;;;;;;10.00;7.15;;;15.70;82.80;;;;;;4190169;28;20507;-76
2021/12/01 01:26:00;;;;;;;11.07;7.97;;;15.70;82.90;;;;;;4165488;28;20068;-76
2021/12/01 01:28:22;;;;;;;12.25;8.13;;;15.80;83.00;;;;;;4192482;28;20454;-76
2021/12/01 01:30:44;;;;;;;12.18;6.93;;;15.80;82.80;;;;;;4192372;28;20114;-76
2021/12/01 01:33:08;;;;;;;12.30;6.68;;;15.80;82.60;;;;;;4192588;28;20079;-77
2021/12/01 01:35:30;;;;;;;9.15;5.95;;;15.80;81.80;;;;;;4179505;28;20129;-75
2021/12/01 01:37:52;;;;;;;9.40;5.47;;;15.80;82.40;;;;;;4175674;28;20064;-76
2021/12/01 01:40:15;;;;;;;9.93;6.10;;;15.90;82.40;;;;;;4177478;28;20087;-76
2021/12/01 01:42:37;;;;;;;12.00;6.63;;;15.90;82.40;;;;;;4175998;28;20053;-76
2021/12/01 01:44:59;;;;;;;9.40;5.32;;;15.90;82.20;;;;;;4185401;28;20057;-75
2021/12/01 01:47:21;;;;;;;11.48;5.90;;;16.00;82.10;;;;;;4192192;28;20048;-76
2021/12/01 01:49:50;;;;;;;9.38;5.68;;;16.00;82.80;;;;;;4191983;28;20071;-74
2021/12/01 01:52:12;;;;;;;10.45;5.00;;;16.00;81.80;;;;;;4191645;28;20415;-74
2021/12/01 01:54:34;;;;;;;11.38;5.32;;;16.00;81.80;;;;;;4185762;28;20049;-75
2021/12/01 01:56:56;;;;;;;7.95;4.63;;;16.00;81.80;;;;;;4161791;28;20125;-75
2021/12/01 01:59:19;;;;;;;12.27;5.13;;;16.00;81.70;;;;;;4175193;28;20044;-73
2021/12/01 02:01:55;;;;;;;9.18;5.53;;;16.00;81.80;;;;;;4176146;28;20060;-74
2021/12/01 02:04:19;;;;;;;7.53;3.70;;;16.00;81.70;;;;;;4175468;28;20041;-75
2021/12/01 02:06:43;;;;;;;5.70;3.60;;;16.10;81.80;;;;;;4175432;28;20064;-75
2021/12/01 02:09:07;;;;;;;8.32;3.88;;;16.10;81.70;;;;;;4175347;28;20055;-76
2021/12/01 02:11:30;;;;;;;6.93;3.25;;;16.00;81.70;;;;;;4175276;28;20041;-75
2021/12/01 02:13:52;;;;;;;6.60;3.72;;;16.00;81.60;;;;;;4188695;28;20391;-75
2021/12/01 02:16:15;;;;;;;6.18;3.63;;;16.00;81.70;;;;;;4191903;28;20064;-74
2021/12/01 02:18:38;;;;;;;5.20;2.53;;;16.00;81.80;;;;;;4189927;28;20495;-73
2021/12/01 02:21:08;;;;;;;4.75;2.63;;;15.90;81.90;;;;;;4191760;28;20053;-75
2021/12/01 02:23:30;;;;;;;6.22;3.30;;;15.90;82.00;;;;;;4180431;28;20057;-73
2021/12/01 02:25:52;;;;;;;5.82;2.28;;;15.90;82.10;;;;;;4161408;28;20076;-73
2021/12/01 02:28:14;;;;;;;2.53;1.88;;;15.90;82.10;;;;;;4191356;28;20404;-74
2021/12/01 02:30:36;;;;;;;6.10;2.45;;;15.90;83.30;;;;;;4188998;28;21519;-73
2021/12/01 02:32:59;;;;;;;3.97;1.83;;;16.00;82.50;;;;;;4185392;28;20094;-73
2021/12/01 02:35:20;;;;;;;3.13;1.77;;;16.10;81.90;;;;;;4175113;28;20182;-73
2021/12/01 02:37:44;;;;;;;4.20;1.33;;;16.20;81.50;;;;;;4159736;28;20456;-72
2021/12/01 02:40:08;;;;;;;2.22;1.60;;;16.30;81.10;;;;;;4175336;28;20127;-73
2021/12/01 02:42:30;;;;;;;5.13;1.45;;;16.30;80.90;;;;;;4178616;28;20503;-74
2021/12/01 02:44:52;;;;;;;3.00;1.15;;;16.30;80.70;;;;;;4183459;28;20462;-74
2021/12/01 02:47:15;;;;;;;2.38;1.27;;;16.30;80.70;;;;;;4191650;28;20056;-74
2021/12/01 02:49:37;;;;;;;1.63;0.98;;;16.30;80.80;;;;;;4191446;28;20131;-73
2021/12/01 02:51:59;;;;;;;2.97;0.80;;;16.30;80.90;;;;;;4175279;28;20041;-74
2021/12/01 02:54:23;;;;;;;0.68;0.68;;;16.20;80.90;;;;;;4178964;28;20158;-73
2021/12/01 02:56:48;;;;;;;0.98;0.75;;;16.20;81.00;;;;;;4190477;28;20136;-74
2021/12/01 02:59:10;;;;;;;1.42;0.80;;;16.20;80.90;;;;;;4189865;28;20450;-75
2021/12/01 03:01:32;;;;;;;0.95;0.70;;;16.20;81.10;;;;;;4191592;28;20076;-75
2021/12/01 03:03:55;;;;;;;1.00;0.80;;;16.20;81.20;;;;;;4175017;28;20049;-75
2021/12/01 03:06:19;;;;;;;0.95;0.60;;;16.20;81.30;;;;;;4174912;28;20107;-75
2021/12/01 03:08:42;;;;;;;1.92;1.10;;;16.10;81.40;;;;;;4168416;28;20447;-74
2021/12/01 03:11:06;;;;;;;1.85;0.50;;;16.10;81.60;;;;;;4185401;28;20040;-75
2021/12/01 03:13:28;;;;;;;2.25;0.47;;;16.10;81.60;;;;;;4161955;28;20053;-74
2021/12/01 03:15:50;;;;;;;0.55;0.47;;;16.10;81.50;;;;;;4159715;28;20061;-75
2021/12/01 03:18:13;;;;;;;1.00;0.50;;;16.10;81.50;;;;;;4159815;28;20124;-76
2021/12/01 03:20:36;;;;;;;1.02;0.50;;;16.10;81.60;;;;;;4174785;28;20094;-74
2021/12/01 03:22:58;;;;;;;1.15;0.65;;;16.20;81.90;;;;;;4170850;28;20124;-74
2021/12/01 03:25:20;;;;;;;0.70;0.50;;;16.20;81.70;;;;;;4176770;28;20048;-75
2021/12/01 03:27:43;;;;;;;0.30;0.30;;;16.30;81.40;;;;;;4174870;28;20103;-74
2021/12/01 03:30:07;;;;;;;0.40;0.40;;;16.30;81.10;;;;;;4177865;28;20475;-73
2021/12/01 03:32:29;;;;;;;0.88;0.38;;;16.30;81.00;;;;;;4183645;28;20488;-74
2021/12/01 03:34:52;;;;;;;0.88;0.40;;;16.30;81.00;;;;;;4174621;28;20049;-74
2021/12/01 03:37:14;;;;;;;0.63;0.40;;;16.30;81.00;;;;;;4174693;28;20461;-73
2021/12/01 03:39:36;;;;;;;2.17;0.30;;;16.30;81.00;;;;;;4167525;28;20051;-73
2021/12/01 03:41:58;;;;;;;2.33;0.55;;;16.30;81.10;;;;;;4175051;28;20063;-74
2021/12/01 03:44:21;;;;;;;2.20;0.70;;;16.20;81.20;;;;;;4174683;28;20048;-74
2021/12/01 03:46:43;;;;;;;1.20;0.60;;;16.20;81.40;;;;;;4175174;28;20401;-74
2021/12/01 03:49:06;;;;;;;3.45;0.70;;;16.10;81.70;;;;;;4177808;28;20052;-74
2021/12/01 03:51:28;;;;;;;0.65;0.40;;;16.10;81.70;;;;;;4179120;28;20110;-73
2021/12/01 03:53:50;;;;;;;1.75;0.57;;;16.10;82.00;;;;;;4180815;28;20416;-73
2021/12/01 03:56:12;;;;;;;1.35;0.50;;;16.10;82.20;;;;;;4177477;28;20048;-73
2021/12/01 03:58:34;;;;;;;1.60;0.50;;;16.10;82.20;;;;;;4177077;28;20063;-73
2021/12/01 04:00:58;;;;;;;2.88;0.50;;;16.10;82.10;;;;;;4162063;28;20043;-73
2021/12/01 04:03:20;;;;;;;0.85;0.60;;;16.10;82.10;;;;;;4177009;28;20052;-74
2021/12/01 04:05:42;;;;;;;5.43;1.42;;;16.10;82.00;;;;;;4177225;28;20451;-73
2021/12/01 04:08:06;;;;;;;4.25;1.65;;;16.10;81.90;;;;;;4175250;28;20761;-73
2021/12/01 04:10:30;;;;;;;6.57;1.42;;;16.20;82.00;;;;;;4176075;28;20045;-74
2021/12/01 04:12:52;;;;;;;6.60;1.52;;;16.20;82.10;;;;;;4176708;28;20049;-73
2021/12/01 04:15:16;;;;;;;4.07;1.30;;;16.30;81.70;;;;;;4177046;28;20045;-75
2021/12/01 04:17:41;;;;;;;5.70;1.33;;;16.40;81.10;;;;;;4176236;28;20179;-74
2021/12/01 04:20:04;;;;;;;10.10;1.67;;;16.50;80.60;;;;;;4176970;28;20065;-74
2021/12/01 04:22:26;;;;;;;4.45;1.02;;;16.60;80.30;;;;;;4176302;28;20171;-74
2021/12/01 04:24:49;;;;;;;5.25;0.95;;;16.60;80.90;;;;;;4176129;28;20065;-71
2021/12/01 04:27:12;;;;;;;3.20;0.93;;;16.60;79.90;;;;;;4176465;28;20045;-73
2021/12/01 04:29:34;;;;;;;2.15;0.60;;;16.60;80.90;;;;;;4168951;28;20594;-73
2021/12/01 04:31:56;;;;;;;4.28;0.68;;;16.60;80.10;;;;;;4176350;28;20041;-73
2021/12/01 04:34:21;;;;;;;2.85;1.00;;;16.50;80.10;;;;;;4176588;28;20069;-73
2021/12/01 04:36:44;;;;;;;3.88;0.77;;;16.50;80.40;;;;;;4176945;28;20044;-74
2021/12/01 04:39:08;;;;;;;2.17;0.80;;;16.40;80.50;;;;;;4176353;28;20685;-73
2021/12/01 04:41:36;;;;;;;2.65;0.73;;;16.30;80.70;;;;;;4176889;28;20107;-72
2021/12/01 04:44:00;;;;;;;2.70;0.90;;;16.30;81.00;;;;;;4161524;28;20049;-74
2021/12/01 04:46:22;;;;;;;2.47;0.95;;;16.20;81.10;;;;;;4176901;28;20110;-75
2021/12/01 04:48:44;;;;;;;3.20;0.80;;;16.20;82.40;;;;;;4176805;28;20053;-75
2021/12/01 04:51:07;;;;;;;1.25;0.60;;;16.20;81.70;;;;;;4176261;28;20049;-74
2021/12/01 04:53:32;;;;;;;1.15;0.60;;;16.30;81.70;;;;;;4176897;28;20135;-72
2021/12/01 04:55:55;;;;;;;1.98;0.50;;;16.30;81.50;;;;;;4176500;28;20044;-72
2021/12/01 04:58:17;;;;;;;2.72;0.73;;;16.30;81.30;;;;;;4174890;28;20418;-73
2021/12/01 05:00:39;;;;;;;1.00;0.70;;;16.40;81.30;;;;;;4176083;28;20045;-74
2021/12/01 05:03:01;;;;;;;2.40;0.77;;;16.40;81.10;;;;;;4176232;28;20049;-74
2021/12/01 05:05:42;;;;;;;0.80;0.50;;;16.40;81.00;;;;;;4176243;28;20134;-74
2021/12/01 05:08:06;;;;;;;1.58;0.60;;;16.50;80.80;;;;;;4176483;28;20064;-75
2021/12/01 05:10:28;;;;;;;1.17;0.80;;;16.50;80.60;;;;;;4176223;28;20504;-74
2021/12/01 05:12:50;;;;;;;0.68;0.68;;;16.50;80.70;;;;;;4176984;28;20048;-74
2021/12/01 05:15:12;;;;;;;1.90;0.70;;;16.60;80.40;;;;;;4176465;28;20088;-71
2021/12/01 05:17:34;;;;;;;0.77;0.77;;;16.70;79.90;;;;;;4176381;28;20124;-75
2021/12/01 05:19:56;;;;;;;0.60;0.60;;;16.80;79.40;;;;;;4175740;28;20381;-68
2021/12/01 05:22:18;;;;;;;0.88;0.73;;;16.90;79.00;;;;;;4176040;28;20037;-69
2021/12/01 05:24:41;;;;;;;1.05;0.65;;;16.90;79.60;;;;;;4175898;28;20079;-68
2021/12/01 05:27:04;;;;;;;0.60;0.55;;;17.00;78.60;;;;;;4175076;28;20060;-68
2021/12/01 05:29:27;;;;;;;0.50;0.50;;;16.90;78.60;;;;;;4175809;28;20102;-68
2021/12/01 05:31:49;;;;;;;0.50;0.50;;;16.90;78.60;;;;;;4176142;28;20053;-69
2021/12/01 05:34:11;;;;;;;0.45;0.45;;;16.90;78.70;;;;;;4175600;28;20049;-68
2021/12/01 05:36:33;;;;;;;0.50;0.40;;;16.90;78.70;;;;;;4175821;28;20048;-68
2021/12/01 05:38:55;;;;;;;0.77;0.50;;;16.80;78.80;;;;;;4175542;28;20110;-68
2021/12/01 05:41:19;;;;;;;0.57;0.32;;;16.70;79.00;;;;;;4188428;28;20777;-67
2021/12/01 05:43:40;;;;;;;0.45;0.45;;;16.70;79.30;;;;;;4191747;28;20127;-67
2021/12/01 05:46:03;;;;;;;0.35;0.35;;;16.60;80.40;;;;;;4191893;28;20500;-68
2021/12/01 05:48:25;;;;;;;0.75;0.40;;;16.60;79.80;;;;;;4191890;28;20051;-68
2021/12/01 05:50:47;;;;;;;0.40;0.40;;;16.60;79.90;;;;;;4182578;28;20044;-68
2021/12/01 05:53:10;;;;;;;0.50;0.50;;;16.60;79.90;;;;;;4175512;28;20041;-68
2021/12/01 05:55:32;;;;;;;0.88;0.60;;;16.70;79.70;;;;;;4177718;28;20049;-68
2021/12/01 05:57:55;;;;;;;0.85;0.45;;;16.80;79.20;;;;;;4191410;28;20056;-68
2021/12/01 06:00:19;;;;;;;0.40;0.40;;;16.90;78.60;;;;;;4184034;28;20052;-68
2021/12/01 06:02:43;;;;;;;1.63;0.60;;;17.00;78.30;;;;;;4175533;28;20106;-68
2021/12/01 06:05:06;;;;;;;1.00;0.68;;;17.00;78.20;;;;;;4160296;28;20076;-68
2021/12/01 06:07:28;;;;;;;0.55;0.52;;;17.00;78.10;;;;;;4175265;28;20106;-68
2021/12/01 06:09:51;;;;;;;0.50;0.50;;;16.90;78.10;;;;;;4175057;28;20052;-68
2021/12/01 06:12:14;;;;;;;0.68;0.45;;;16.90;78.20;;;;;;4176702;28;20460;-69
2021/12/01 06:14:38;;;;;;;0.30;0.30;;;16.90;78.30;;;;;;4175620;28;20044;-68
2021/12/01 06:17:00;;;;;;;0.50;0.50;;;16.80;79.10;;;;;;4175383;28;20060;-68
2021/12/01 06:19:22;;;;;;;0.82;0.60;;;16.80;78.60;;;;;;4188167;28;20064;-69
2021/12/01 06:21:44;;;;;;;0.40;0.40;;;16.80;78.80;;;;;;4192003;28;20240;-69
2021/12/01 06:24:06;;;;;;;0.70;0.70;;;16.80;78.80;;;;;;4191537;28;20144;-68
2021/12/01 06:26:29;;;;;;;0.60;0.60;;;16.80;78.50;;;;;;4192077;28;20450;-68
2021/12/01 06:28:51;;;;;;;0.63;0.63;;;16.90;78.30;;;;;;4181832;28;20106;-68
2021/12/01 06:31:15;;;;;;;0.40;0.40;;;16.90;78.10;;;;;;4191558;28;20047;-68
2021/12/01 06:33:37;;;;;;;0.45;0.45;;;16.90;78.00;;;;;;4191722;28;20492;-68
2021/12/01 06:35:59;;;;;;;0.50;0.50;;;17.00;77.80;;;;;;4191479;28;20498;-68
2021/12/01 06:38:21;;;;;;;0.38;0.38;;;17.10;77.50;;;;;;4187330;28;20519;-68
2021/12/01 06:40:43;;;;;;;1.05;0.60;;;17.10;77.20;;;;;;4175132;28;20099;-68
2021/12/01 06:43:06;;;;;;;0.60;0.60;;;17.10;76.90;;;;;;4175224;28;20515;-68
2021/12/01 06:45:28;;;;;;;1.40;0.60;;;17.10;77.00;;;;;;4174722;28;20041;-68
2021/12/01 06:47:52;;;;;;;0.60;0.60;;;17.10;77.00;;;;;;4169793;28;20053;-68
2021/12/01 06:50:14;;;;;;;0.60;0.60;;;17.20;76.80;;;;;;4175197;28;20075;-69
2021/12/01 06:52:38;;;;;;;0.98;0.50;;;17.30;76.50;;;;;;4174806;28;20140;-69
2021/12/01 06:55:00;;;;;;;0.63;0.63;;;17.40;76.00;;;;;;4174871;28;20037;-68
2021/12/01 06:57:22;;;;;;;0.50;0.50;;;17.40;75.80;;;;;;4166760;28;20131;-66
2021/12/01 06:59:44;;;;;;;0.40;0.40;;;17.40;75.60;;;;;;4174747;28;20041;-66
2021/12/01 07:02:07;;;;;;;1.45;0.43;;;17.40;76.10;;;;;;4190947;28;20056;-67
2021/12/01 07:04:31;;;;;;;0.40;0.40;;;17.30;76.40;;;;;;4189527;28;20056;-67
2021/12/01 07:06:53;;;;;;;0.40;0.40;;;17.30;76.70;;;;;;4188683;28;20061;-67
2021/12/01 07:09:19;;;;;;;1.27;0.47;;;17.30;76.70;;;;;;4192917;28;20044;-68
2021/12/01 07:11:41;;;;;;;0.50;0.50;;;17.30;76.50;;;;;;4194975;28;20057;-67
2021/12/01 07:14:03;;;;;;;0.35;0.35;;;17.30;76.40;;;;;;4190821;28;20037;-66
2021/12/01 07:16:27;;;;;;;0.40;0.40;;;17.30;76.40;;;;;;4183908;28;20073;-67
2021/12/01 07:18:49;;;;;;;0.28;0.28;;;17.20;76.50;;;;;;4191152;28;20408;-67
2021/12/01 07:21:13;;;;;;;0.68;0.38;;;17.20;76.70;;;;;;4190696;28;20132;-68
2021/12/01 07:23:35;;;;;;;0.52;0.35;;;17.10;76.70;;;;;;4194271;28;20458;-67
2021/12/01 07:25:57;;;;;;;1.05;0.50;;;17.10;76.80;;;;;;4184732;28;20049;-67
2021/12/01 07:28:19;;;;;;;0.30;0.30;;;17.10;77.00;;;;;;4178026;28;20494;-67
2021/12/01 07:30:43;;;;;;;0.60;0.38;;;17.00;77.00;;;;;;4160362;28;20049;-68
2021/12/01 07:33:05;;;;;;;1.65;0.45;;;17.00;77.20;;;;;;4190763;28;20075;-68
2021/12/01 07:35:27;;;;;;;0.43;0.43;;;16.90;77.10;;;;;;4178491;28;20045;-66
2021/12/01 07:37:53;;;;;;;0.40;0.40;;;16.90;77.30;;;;;;4194834;28;20048;-66
2021/12/01 07:40:15;;;;;;;0.40;0.40;;;16.80;77.60;;;;;;4193677;28;20473;-67
2021/12/01 07:42:38;;;;;;;0.93;0.40;;;16.70;77.80;;;;;;4195637;28;20052;-67
2021/12/01 07:45:00;;;;;;;0.40;0.40;;;16.70;78.40;;;;;;4183750;28;20045;-68
2021/12/01 07:47:22;;;;;;;0.50;0.50;;;16.60;78.50;;;;;;4176937;28;20069;-68
2021/12/01 07:49:44;;;;;;;2.20;0.40;;;16.50;79.10;;;;;;4181717;28;20049;-68
2021/12/01 07:52:07;;;;;;;0.68;0.50;;;16.60;79.60;;;;;;4193673;28;20377;-68
2021/12/01 07:54:30;;;;;;;1.00;0.50;;;16.70;79.40;;;;;;4192961;28;20107;-67
2021/12/01 07:56:53;;;;;;;0.30;0.22;;;17.00;78.40;;;;;;4178380;28;20132;-67
2021/12/01 07:59:16;;;;;;;0.60;0.40;;;17.30;77.90;;;;;;4193694;28;20052;-67
2021/12/01 08:01:38;;;;;;;0.55;0.55;;;17.70;75.60;;;;;;4193057;28;20114;-67
2021/12/01 08:04:00;;;;;;;0.40;0.40;;;18.00;73.80;;;;;;4189983;28;20045;-67
2021/12/01 08:06:23;;;;;;;0.60;0.60;;;18.30;72.30;;;;;;4177778;28;20464;-68
2021/12/01 08:08:48;;;;;;;0.95;0.60;;;18.60;70.80;;;;;;4177466;28;20144;-68
2021/12/01 08:11:12;;;;;;;1.65;0.50;;;18.80;70.80;;;;;;4164176;28;20051;-68
2021/12/01 08:13:33;;;;;;;1.88;0.60;;;18.90;69.00;;;;;;4186188;28;20048;-68
2021/12/01 08:15:56;;;;;;;1.25;0.60;;;19.00;68.80;;;;;;4185507;28;20044;-68
2021/12/01 08:18:19;;;;;;;0.68;0.68;;;19.00;68.70;;;;;;4189542;28;20044;-68
2021/12/01 08:20:41;;;;;;;0.50;0.50;;;18.90;68.70;;;;;;4183942;28;20041;-68
2021/12/01 08:23:03;;;;;;;0.63;0.63;;;19.00;68.60;;;;;;4188974;28;20050;-68
2021/12/01 08:25:26;;;;;;;0.85;0.57;;;19.00;68.60;;;;;;4190851;28;20045;-68
2021/12/01 08:27:49;;;;;;;1.00;0.90;;;19.10;68.40;;;;;;4188380;28;20052;-68
2021/12/01 08:30:12;;;;;;;0.85;0.70;;;19.10;68.00;;;;;;4177335;28;20075;-68
2021/12/01 08:32:35;;;;;;;0.85;0.60;;;19.10;67.80;;;;;;4177008;28;20068;-68
2021/12/01 08:34:57;;;;;;;2.10;1.10;;;19.10;67.80;;;;;;4179680;28;20498;-67
2021/12/01 08:37:22;;;;;;;1.08;0.90;;;19.00;68.20;;;;;;4193120;28;20123;-69
2021/12/01 08:39:44;;;;;;;0.95;0.82;;;19.00;68.50;;;;;;4184002;28;20047;-69
2021/12/01 08:42:09;;;;;;;1.45;1.08;;;18.90;68.90;;;;;;4176438;28;20579;-69
2021/12/01 08:44:33;;;;;;;0.75;0.75;;;18.90;69.00;;;;;;4177561;28;20049;-70
2021/12/01 08:46:55;;;;;;;2.78;1.25;;;18.90;69.00;;;;;;4188837;28;20041;-71
2021/12/01 08:49:17;;;;;;;2.33;0.60;;;18.90;69.30;;;;;;4193373;28;20049;-70
2021/12/01 08:51:40;;;;;;;1.58;0.90;;;18.80;69.50;;;;;;4175877;28;20049;-69
2021/12/01 08:54:02;;;;;;;1.15;0.70;;;18.80;69.70;;;;;;4176074;28;20126;-69
2021/12/01 08:56:24;;;;;;;1.35;0.80;;;18.80;69.80;;;;;;4176460;28;20072;-70
2021/12/01 08:58:47;;;;;;;2.58;0.80;;;18.80;69.70;;;;;;4175854;28;20504;-69
2021/12/01 09:01:10;;;;;;;5.38;1.25;;;18.80;69.60;;;;;;4186725;28;20037;-69
2021/12/01 09:03:36;;;;;;;5.20;0.98;;;18.70;69.70;;;;;;4192286;28;20052;-69
2021/12/01 09:05:58;;;;;;;2.13;1.25;;;18.60;70.00;;;;;;4192836;28;20494;-70
2021/12/01 09:08:22;;;;;;;7.78;1.23;;;18.60;70.20;;;;;;4191363;28;20048;-70
2021/12/01 09:10:46;;;;;;;1.77;1.30;;;18.40;70.40;;;;;;4183569;28;20056;-69
2021/12/01 09:13:09;;;;;;;5.20;1.13;;;18.40;70.80;;;;;;4160767;28;20131;-69
2021/12/01 09:15:32;;;;;;;8.00;1.58;;;18.40;71.20;;;;;;4175882;28;20063;-69
2021/12/01 09:17:57;;;;;;;6.82;1.65;;;18.30;71.50;;;;;;4175382;28;20049;-69
2021/12/01 09:20:19;;;;;;;8.27;1.33;;;18.40;71.40;;;;;;4182325;28;20045;-69
2021/12/01 09:22:42;;;;;;;4.93;1.48;;;18.50;70.90;;;;;;4191322;28;20131;-69
2021/12/01 09:25:05;;;;;;;3.85;1.00;;;18.60;70.00;;;;;;4191588;28;20048;-71
2021/12/01 09:27:27;;;;;;;5.57;1.90;;;18.60;70.10;;;;;;4192070;28;20070;-70
2021/12/01 09:29:49;;;;;;;3.72;1.17;;;18.70;69.90;;;;;;4188879;28;20057;-72
2021/12/01 09:32:12;;;;;;;3.80;1.00;;;18.60;69.90;;;;;;4175322;28;20056;-71
2021/12/01 09:34:36;;;;;;;5.90;1.30;;;18.60;70.10;;;;;;4175679;28;20045;-70
2021/12/01 09:36:58;;;;;;;2.85;0.95;;;18.50;70.30;;;;;;4175235;28;20568;-70
2021/12/01 09:39:20;;;;;;;4.32;1.27;;;18.40;70.80;;;;;;4161079;28;20321;-70
2021/12/01 09:41:42;;;;;;;2.97;0.88;;;18.30;70.70;;;;;;4191558;28;20056;-70
2021/12/01 09:44:06;;;;;;;4.72;1.02;;;18.30;71.10;;;;;;4190564;28;20058;-70
2021/12/01 09:46:30;;;;;;;4.47;0.80;;;18.30;71.00;;;;;;4191904;28;20048;-70
2021/12/01 09:48:52;;;;;;;4.82;1.50;;;18.40;70.90;;;;;;4186096;28;20403;-71
2021/12/01 09:51:18;;;;;;;4.57;1.52;;;18.40;70.70;;;;;;4160367;28;20374;-70
2021/12/01 09:53:40;;;;;;;3.75;1.17;;;18.40;70.50;;;;;;4174751;28;20051;-71
2021/12/01 09:56:03;;;;;;;5.43;1.02;;;18.40;70.60;;;;;;4175215;28;20508;-71
2021/12/01 09:58:31;;;;;;;4.55;1.27;;;18.40;70.60;;;;;;4175120;28;20128;-70
2021/12/01 10:00:58;;;;;;;2.67;1.02;;;18.20;71.00;;;;;;4175317;28;20053;-70
2021/12/01 10:03:24;;;;;;;4.53;0.90;;;18.20;71.40;;;;;;4174943;28;20408;-70
2021/12/01 10:05:50;;;;;;;4.00;0.88;;;18.10;71.80;;;;;;4174514;28;20128;-72
2021/12/01 10:08:19;;;;;;;2.72;0.88;;;18.00;72.30;;;;;;4173620;28;20049;-71
2021/12/01 10:10:43;;;;;;;3.70;1.00;;;17.90;72.80;;;;;;4174322;28;20040;-71
2021/12/01 10:13:05;;;;;;;2.08;0.90;;;17.90;73.10;;;;;;4174308;28;20056;-70
2021/12/01 10:15:31;;;;;;;5.82;1.20;;;17.90;72.90;;;;;;4174864;28;20075;-70
2021/12/01 10:18:11;;;;;;;5.50;1.45;;;18.00;72.60;;;;;;4174502;28;20060;-71
2021/12/01 10:20:36;;;;;;;5.55;1.27;;;18.10;72.20;;;;;;4187153;28;20044;-70
2021/12/01 10:23:10;;;;;;;4.78;1.20;;;18.10;72.10;;;;;;4187890;28;20135;-71
2021/12/01 10:25:33;;;;;;;4.05;0.88;;;18.20;71.40;;;;;;4190637;28;20128;-70
2021/12/01 10:27:55;;;;;;;5.63;1.30;;;18.30;71.20;;;;;;4177932;28;20041;-70
2021/12/01 10:30:36;;;;;;;5.65;1.50;;;18.30;71.00;;;;;;4179349;28;20136;-70
2021/12/01 10:33:12;;;;;;;7.53;1.77;;;18.40;70.40;;;;;;4174348;28;20052;-70
2021/12/01 10:35:36;;;;;;;6.32;1.65;;;18.60;70.10;;;;;;4174550;28;20048;-70
2021/12/01 10:37:58;;;;;;;3.67;1.15;;;18.70;69.60;;;;;;4159655;28;20050;-70
2021/12/01 10:40:21;;;;;;;5.28;1.15;;;18.70;69.40;;;;;;4184995;28;20051;-69
2021/12/01 10:42:54;;;;;;;2.45;1.00;;;18.70;69.30;;;;;;4191071;28;20052;-70
2021/12/01 10:45:19;;;;;;;6.68;1.52;;;18.70;69.30;;;;;;4190482;28;20040;-70
2021/12/01 10:47:42;;;;;;;6.85;1.58;;;18.70;69.20;;;;;;4186067;28;20615;-69
2021/12/01 10:50:06;;;;;;;4.32;1.52;;;18.70;69.40;;;;;;4177482;28;20043;-69
2021/12/01 10:52:33;;;;;;;2.58;1.00;;;18.60;69.40;;;;;;4176663;28;20060;-70
2021/12/01 10:55:04;;;;;;;5.90;1.50;;;18.60;69.60;;;;;;4187549;28;20041;-70
2021/12/01 10:57:26;;;;;;;7.70;1.40;;;18.60;69.50;;;;;;4187650;28;20123;-70
2021/12/01 10:59:50;;;;;;;6.85;1.50;;;18.60;69.70;;;;;;4183213;28;20368;-70
2021/12/01 11:02:15;;;;;;;9.93;1.75;;;18.50;69.80;;;;;;4192012;28;20048;-71
2021/12/01 11:04:45;;;;;;;4.50;1.10;;;18.50;70.00;;;;;;4181341;28;20072;-70
2021/12/01 11:07:24;;;;;;;6.60;1.13;;;18.40;70.10;;;;;;4169921;28;20048;-70
2021/12/01 11:09:46;;;;;;;5.95;1.90;;;18.40;70.20;;;;;;4187751;28;20360;-70
2021/12/01 11:12:09;;;;;;;6.90;1.80;;;18.40;70.60;;;;;;4176835;28;20040;-69
2021/12/01 11:14:44;;;;;;;26.15;4.82;;;18.30;70.80;;;;;;4188634;28;20136;-70
2021/12/01 11:17:08;;;;;;;6.28;1.33;;;18.40;71.00;;;;;;4183742;28;20414;-70
2021/12/01 11:19:35;;;;;;;7.65;2.03;;;18.40;71.00;;;;;;4186578;28;21566;-70
2021/12/01 11:21:57;;;;;;;14.57;2.55;;;18.40;70.90;;;;;;4179264;28;20044;-70
2021/12/01 11:24:23;;;;;;;6.40;1.58;;;18.40;71.20;;;;;;4167893;28;20041;-73
2021/12/01 11:26:46;;;;;;;9.43;2.90;;;18.40;70.90;;;;;;4176106;28;20118;-71
2021/12/01 11:29:28;;;;;;;9.45;2.05;;;18.50;70.70;;;;;;4190855;28;20055;-71
2021/12/01 11:31:53;;;;;;;13.40;3.30;;;18.50;70.40;;;;;;4177713;28;20060;-71
2021/12/01 11:34:18;;;;;;;6.57;2.45;;;18.50;70.70;;;;;;4179985;28;20813;-71
2021/12/01 11:36:43;;;;;;;17.40;3.67;;;18.40;70.90;;;;;;4177301;28;20060;-71
2021/12/01 11:39:09;;;;;;;9.75;2.30;;;18.40;71.40;;;;;;4177719;28;20052;-72
2021/12/01 11:41:31;;;;;;;10.15;2.40;;;18.30;71.50;;;;;;4178773;28;20399;-71
2021/12/01 11:43:54;;;;;;;14.90;3.00;;;18.30;71.60;;;;;;4160843;28;20052;-71
2021/12/01 11:46:16;;;;;;;13.35;3.60;;;18.30;71.60;;;;;;4188672;28;20444;-71
2021/12/01 11:48:40;;;;;;;10.30;2.30;;;18.30;71.50;;;;;;4175312;28;20055;-70
2021/12/01 11:51:15;;;;;;;13.52;3.05;;;18.30;71.40;;;;;;4190675;28;20060;-71
2021/12/01 11:53:39;;;;;;;13.68;2.45;;;18.20;70.90;;;;;;4174208;28;20052;-71
2021/12/01 11:56:04;;;;;;;14.93;3.25;;;18.20;71.40;;;;;;4184325;28;20076;-71
2021/12/01 11:58:56;;;;;;;18.85;3.55;;;18.20;71.70;;;;;;4175144;28;20098;-71
2021/12/01 12:01:48;;;;;;;;;;;18.20;71.10;;;;;;4174971;28;20472;-71
2021/12/01 12:04:45;;;;;;;11.95;2.58;;;18.20;71.40;;;;;;4191047;28;19971;-71
2021/12/01 12:07:18;;;;;;;15.30;3.55;;;18.10;71.30;;;;;;4175042;28;20053;-71
2021/12/01 12:10:12;;;;;;;14.02;2.92;;;18.10;71.80;;;;;;4177238;28;20447;-72
2021/12/01 12:12:58;;;;;;;11.88;2.78;;;18.00;70.90;;;;;;4183195;28;20052;-73
2021/12/01 12:15:41;;;;;;;14.80;3.25;;;18.00;71.40;;;;;;4188213;28;20056;-72
2021/12/01 12:18:05;;;;;;;13.40;2.42;;;18.00;71.20;;;;;;4178392;28;20466;-73
2021/12/01 12:20:30;;;;;;;14.43;3.03;;;18.00;71.90;;;;;;4179822;28;20049;-73
2021/12/01 12:23:04;;;;;;;16.80;3.33;;;17.90;72.00;;;;;;4175005;28;20138;-74
2021/12/01 12:25:39;;;;;;;18.25;3.20;;;17.80;71.70;;;;;;4161347;28;20037;-71
2021/12/01 12:28:29;;;;;;;10.95;2.72;;;17.80;72.60;;;;;;4174946;28;20053;-73
2021/12/01 12:30:51;;;;;;;11.82;2.10;;;17.80;72.80;;;;;;4164845;28;20444;-73
2021/12/01 12:33:18;;;;;;;9.68;2.83;;;17.80;72.20;;;;;;4174934;28;20467;-73